JAL68 RJAA-KSEA
Flight info
| Callsign | JAL68 |
|---|---|
| Flight time | N/A |
| Altitude | 33000 |
| Route | GULBO Y808 NOLAX Y812 ADNAP OTR5 KALNA KALIG CUTEE/N0502F350 DCT CARTO DCT 50N176E DCT 50E80 DCT 51N70 DCT 52N60 DCT 53N50/N0496F370 DCT 53N40 DCT MANJO DCT 50N29 DCT TOU MARNR8 |
| Aircraft | B77W/H-SDE1E2E3FGHIJ2J3J4J5M1RWXY/LB1D1 |
Departure
| Time | N/A |
|---|---|
| Airport | Narita International Airport (RJAA) |
Arrival
| Time | 2026-05-06 12:29 |
|---|---|
| Airport | Seattle–Tacoma International Airport (KSEA) |
| Time | Latitude | Longitude | Altitude | Speed | Heading |
|---|---|---|---|---|---|
| 2026-05-06 12:00 | 48.25854 | -124.33024 | 28678 ft | 504 kts | 102° |
| 2026-05-06 12:00 | 48.25142 | -124.27905 | 28040 ft | 499 kts | 102° |
| 2026-05-06 12:00 | 48.24441 | -124.22969 | 27420 ft | 492 kts | 102° |
| 2026-05-06 12:01 | 48.23722 | -124.17966 | 26797 ft | 488 kts | 102° |
| 2026-05-06 12:01 | 48.23018 | -124.13080 | 26194 ft | 483 kts | 102° |
| 2026-05-06 12:01 | 48.22313 | -124.08184 | 25579 ft | 479 kts | 102° |
| 2026-05-06 12:01 | 48.21613 | -124.03327 | 24961 ft | 474 kts | 102° |
| 2026-05-06 12:02 | 48.20918 | -123.98514 | 24356 ft | 470 kts | 102° |
| 2026-05-06 12:02 | 48.20229 | -123.93748 | 23758 ft | 466 kts | 102° |
| 2026-05-06 12:02 | 48.19546 | -123.89032 | 23160 ft | 462 kts | 102° |
| 2026-05-06 12:02 | 48.18864 | -123.84343 | 22571 ft | 458 kts | 102° |
| 2026-05-06 12:03 | 48.18186 | -123.79709 | 21980 ft | 453 kts | 102° |
| 2026-05-06 12:03 | 48.17512 | -123.75106 | 21396 ft | 450 kts | 102° |
| 2026-05-06 12:03 | 48.16844 | -123.70550 | 20819 ft | 446 kts | 102° |
| 2026-05-06 12:03 | 48.16180 | -123.66028 | 20248 ft | 443 kts | 102° |
| 2026-05-06 12:04 | 48.15517 | -123.61544 | 19674 ft | 440 kts | 102° |
| 2026-05-06 12:04 | 48.14855 | -123.57081 | 19103 ft | 437 kts | 102° |
| 2026-05-06 12:04 | 48.14199 | -123.52660 | 18537 ft | 434 kts | 102° |
| 2026-05-06 12:04 | 48.13547 | -123.48285 | 18231 ft | 424 kts | 102° |
| 2026-05-06 12:05 | 48.12914 | -123.44040 | 18045 ft | 412 kts | 102° |
| 2026-05-06 12:05 | 48.12297 | -123.39912 | 17874 ft | 401 kts | 103° |
| 2026-05-06 12:05 | 48.11690 | -123.35878 | 17529 ft | 396 kts | 103° |
| 2026-05-06 12:05 | 48.11078 | -123.31847 | 17007 ft | 396 kts | 103° |
| 2026-05-06 12:06 | 48.10471 | -123.27844 | 16553 ft | 394 kts | 103° |
| 2026-05-06 12:06 | 48.09864 | -123.23851 | 16110 ft | 392 kts | 103° |
| 2026-05-06 12:06 | 48.09262 | -123.19896 | 15654 ft | 389 kts | 103° |
| 2026-05-06 12:06 | 48.08662 | -123.15961 | 15209 ft | 387 kts | 103° |
| 2026-05-06 12:07 | 48.08064 | -123.12062 | 14767 ft | 384 kts | 103° |
| 2026-05-06 12:07 | 48.07469 | -123.08175 | 14326 ft | 381 kts | 103° |
| 2026-05-06 12:07 | 48.06878 | -123.04329 | 13889 ft | 379 kts | 103° |
| 2026-05-06 12:07 | 48.06290 | -123.00507 | 13443 ft | 376 kts | 102° |
| 2026-05-06 12:08 | 48.05703 | -122.96704 | 13023 ft | 373 kts | 102° |
| 2026-05-06 12:08 | 48.05123 | -122.92942 | 12596 ft | 370 kts | 102° |
| 2026-05-06 12:08 | 48.04543 | -122.89209 | 12209 ft | 367 kts | 102° |
| 2026-05-06 12:08 | 48.03973 | -122.85552 | 12038 ft | 356 kts | 102° |
| 2026-05-06 12:09 | 48.03161 | -122.82169 | 11984 ft | 343 kts | 121° |
| 2026-05-06 12:09 | 48.01594 | -122.79518 | 11990 ft | 342 kts | 144° |
| 2026-05-06 12:09 | 47.99506 | -122.77886 | 12002 ft | 340 kts | 165° |
| 2026-05-06 12:09 | 47.97188 | -122.77400 | 11996 ft | 337 kts | 185° |
| 2026-05-06 12:10 | 47.94975 | -122.78279 | 11981 ft | 324 kts | 214° |
| 2026-05-06 12:10 | 47.93424 | -122.80486 | 11980 ft | 298 kts | 244° |
| 2026-05-06 12:10 | 47.92905 | -122.83306 | 11977 ft | 274 kts | 275° |
| 2026-05-06 12:10 | 47.93475 | -122.85858 | 11968 ft | 254 kts | 309° |
| 2026-05-06 12:11 | 47.94889 | -122.87395 | 12002 ft | 255 kts | 335° |
| 2026-05-06 12:11 | 47.96371 | -122.88785 | 11980 ft | 254 kts | 308° |
| 2026-05-06 12:11 | 47.97144 | -122.91131 | 12007 ft | 255 kts | 289° |
| 2026-05-06 12:11 | 47.97753 | -122.93644 | 11997 ft | 259 kts | 291° |
| 2026-05-06 12:12 | 47.98657 | -122.95940 | 11987 ft | 261 kts | 319° |
| 2026-05-06 12:12 | 48.00206 | -122.97368 | 11999 ft | 264 kts | 332° |
| 2026-05-06 12:12 | 48.01853 | -122.98635 | 12009 ft | 268 kts | 329° |
| 2026-05-06 12:12 | 48.03475 | -122.99978 | 11981 ft | 264 kts | 328° |
| 2026-05-06 12:13 | 48.05043 | -123.01337 | 11973 ft | 258 kts | 327° |
| 2026-05-06 12:13 | 48.06577 | -123.02709 | 11979 ft | 257 kts | 327° |
| 2026-05-06 12:13 | 48.08109 | -123.04110 | 12002 ft | 258 kts | 326° |
| 2026-05-06 12:13 | 48.09635 | -123.05521 | 12001 ft | 259 kts | 326° |
| 2026-05-06 12:14 | 48.11144 | -123.06928 | 12002 ft | 260 kts | 326° |
| 2026-05-06 12:14 | 48.12683 | -123.08365 | 11997 ft | 261 kts | 326° |
| 2026-05-06 12:14 | 48.14261 | -123.09693 | 11985 ft | 260 kts | 339° |
| 2026-05-06 12:14 | 48.16055 | -123.10000 | 12006 ft | 266 kts | 4° |
| 2026-05-06 12:15 | 48.17826 | -123.09117 | 12006 ft | 273 kts | 28° |
| 2026-05-06 12:15 | 48.19252 | -123.07196 | 11988 ft | 282 kts | 52° |
| 2026-05-06 12:15 | 48.20020 | -123.04476 | 11980 ft | 289 kts | 80° |
| 2026-05-06 12:15 | 48.19871 | -123.01482 | 11984 ft | 292 kts | 110° |
| 2026-05-06 12:16 | 48.18776 | -122.98964 | 11993 ft | 291 kts | 141° |
| 2026-05-06 12:16 | 48.17068 | -122.97196 | 12009 ft | 303 kts | 150° |
| 2026-05-06 12:16 | 48.15272 | -122.95521 | 11979 ft | 305 kts | 150° |
| 2026-05-06 12:16 | 48.13462 | -122.93847 | 11998 ft | 306 kts | 150° |
| 2026-05-06 12:17 | 48.11648 | -122.92174 | 12000 ft | 306 kts | 150° |
| 2026-05-06 12:17 | 48.09831 | -122.90497 | 11996 ft | 307 kts | 150° |
| 2026-05-06 12:17 | 48.08013 | -122.88817 | 11996 ft | 307 kts | 150° |
| 2026-05-06 12:17 | 48.06194 | -122.87132 | 11983 ft | 308 kts | 150° |
| 2026-05-06 12:18 | 48.04379 | -122.85450 | 11997 ft | 307 kts | 150° |
| 2026-05-06 12:18 | 48.02687 | -122.83545 | 11811 ft | 305 kts | 129° |
| 2026-05-06 12:18 | 48.01661 | -122.80813 | 11478 ft | 300 kts | 113° |
| 2026-05-06 12:18 | 48.00736 | -122.77996 | 11172 ft | 304 kts | 119° |
| 2026-05-06 12:19 | 47.99643 | -122.75232 | 11030 ft | 311 kts | 122° |
| 2026-05-06 12:19 | 47.98510 | -122.72515 | 10983 ft | 302 kts | 119° |
| 2026-05-06 12:19 | 47.97653 | -122.69675 | 10816 ft | 298 kts | 109° |
| 2026-05-06 12:19 | 47.96990 | -122.66764 | 10529 ft | 296 kts | 107° |
| 2026-05-06 12:20 | 47.96354 | -122.63850 | 10176 ft | 296 kts | 107° |
| 2026-05-06 12:20 | 47.95709 | -122.60992 | 9856 ft | 294 kts | 108° |
| 2026-05-06 12:20 | 47.95039 | -122.58118 | 9564 ft | 292 kts | 109° |
| 2026-05-06 12:20 | 47.94363 | -122.55284 | 9295 ft | 289 kts | 109° |
| 2026-05-06 12:21 | 47.93691 | -122.52487 | 8992 ft | 287 kts | 109° |
| 2026-05-06 12:21 | 47.93009 | -122.49702 | 8748 ft | 280 kts | 113° |
| 2026-05-06 12:21 | 47.91906 | -122.47384 | 8418 ft | 274 kts | 143° |
| 2026-05-06 12:21 | 47.90255 | -122.46062 | 8176 ft | 268 kts | 163° |
| 2026-05-06 12:22 | 47.88483 | -122.45266 | 7890 ft | 266 kts | 165° |
| 2026-05-06 12:22 | 47.86711 | -122.44501 | 7567 ft | 265 kts | 165° |
| 2026-05-06 12:22 | 47.84941 | -122.43736 | 7280 ft | 264 kts | 165° |
| 2026-05-06 12:22 | 47.83186 | -122.42971 | 6976 ft | 263 kts | 165° |
| 2026-05-06 12:23 | 47.81435 | -122.42202 | 6692 ft | 261 kts | 165° |
| 2026-05-06 12:23 | 47.79706 | -122.41438 | 6420 ft | 259 kts | 165° |
| 2026-05-06 12:23 | 47.77989 | -122.40679 | 6155 ft | 256 kts | 164° |
| 2026-05-06 12:23 | 47.76295 | -122.39872 | 5880 ft | 254 kts | 158° |
| 2026-05-06 12:24 | 47.74703 | -122.38773 | 5626 ft | 252 kts | 154° |
| 2026-05-06 12:24 | 47.73149 | -122.37608 | 5366 ft | 250 kts | 154° |
| 2026-05-06 12:24 | 47.71595 | -122.36461 | 5113 ft | 249 kts | 154° |
| 2026-05-06 12:24 | 47.70046 | -122.35336 | 4858 ft | 248 kts | 155° |
| 2026-05-06 12:25 | 47.68489 | -122.34221 | 4592 ft | 247 kts | 155° |
| 2026-05-06 12:25 | 47.66942 | -122.33120 | 4335 ft | 246 kts | 155° |
| 2026-05-06 12:25 | 47.65402 | -122.32069 | 4066 ft | 240 kts | 162° |
| 2026-05-06 12:25 | 47.63776 | -122.31699 | 3795 ft | 236 kts | 179° |
| 2026-05-06 12:26 | 47.62137 | -122.31661 | 3481 ft | 236 kts | 181° |
| 2026-05-06 12:26 | 47.60496 | -122.31668 | 3177 ft | 235 kts | 181° |
| 2026-05-06 12:26 | 47.58890 | -122.31683 | 2841 ft | 224 kts | 181° |
| 2026-05-06 12:26 | 47.57380 | -122.31698 | 2554 ft | 209 kts | 181° |
| 2026-05-06 12:27 | 47.55949 | -122.31710 | 2319 ft | 207 kts | 181° |
| 2026-05-06 12:27 | 47.54518 | -122.31721 | 2034 ft | 203 kts | 181° |
| 2026-05-06 12:27 | 47.53162 | -122.31731 | 1739 ft | 189 kts | 181° |
| 2026-05-06 12:27 | 47.51842 | -122.31746 | 1558 ft | 188 kts | 180° |
| 2026-05-06 12:28 | 47.50614 | -122.31755 | 1289 ft | 165 kts | 180° |
| 2026-05-06 12:28 | 47.49886 | -122.31760 | 1140 ft | 149 kts | 180° |
| 2026-05-06 12:28 | 47.48935 | -122.31768 | 925 ft | 130 kts | 181° |
| 2026-05-06 12:28 | 47.48012 | -122.31761 | 726 ft | 131 kts | 180° |
| 2026-05-06 12:29 | 47.47089 | -122.31775 | 565 ft | 134 kts | 180° |
| 2026-05-06 12:29 | 47.46153 | -122.31792 | 433 ft | 133 kts | 180° |
| 2026-05-06 12:29 | 47.45317 | -122.31798 | 402 ft | 98 kts | 180° |
| 2026-05-06 12:29 | 47.44855 | -122.31803 | 395 ft | 32 kts | 180° |
| 2026-05-06 12:30 | 47.44599 | -122.31759 | 386 ft | 25 kts | 151° |
| 2026-05-06 12:30 | 47.44495 | -122.31671 | 381 ft | 25 kts | 149° |
| 2026-05-06 12:30 | 47.44342 | -122.31540 | 381 ft | 25 kts | 149° |
| 2026-05-06 12:30 | 47.44235 | -122.31340 | 385 ft | 25 kts | 108° |
| 2026-05-06 12:31 | 47.44160 | -122.31107 | 388 ft | 25 kts | 132° |
| 2026-05-06 12:31 | 47.44011 | -122.30973 | 385 ft | 25 kts | 150° |
| 2026-05-06 12:31 | 47.43912 | -122.30839 | 385 ft | 19 kts | 114° |
| 2026-05-06 12:31 | 47.43923 | -122.30655 | 386 ft | 14 kts | 52° |
| 2026-05-06 12:32 | 47.43979 | -122.30532 | 389 ft | 14 kts | 66° |
| 2026-05-06 12:32 | 47.43980 | -122.30435 | 390 ft | 6 kts | 122° |
| 2026-05-06 12:32 | 47.43953 | -122.30385 | 391 ft | 6 kts | 139° |
| 2026-05-06 12:32 | 47.43932 | -122.30358 | 391 ft | 1 kts | 139° |
| 2026-05-06 12:33 | 47.43924 | -122.30348 | 391 ft | 0 kts | 140° |